createdAt,value
2022-12-20T00:00:26.773Z,89.00
2022-12-20T00:02:31.423Z,88.44
2022-12-20T00:04:35.808Z,89.11
2022-12-20T00:06:41.781Z,88.78
2022-12-20T00:08:46.799Z,89.24
2022-12-20T00:10:51.579Z,88.49
2022-12-20T00:12:55.529Z,88.33
2022-12-20T00:15:01.294Z,88.20
2022-12-20T00:17:05.962Z,88.21
2022-12-20T00:19:13.238Z,88.11
2022-12-20T00:21:17.752Z,87.72
2022-12-20T00:23:21.936Z,88.22
2022-12-20T00:25:26.547Z,88.40
2022-12-20T00:27:30.605Z,87.73
2022-12-20T00:29:35.909Z,87.47
2022-12-20T00:31:42.093Z,87.33
2022-12-20T00:33:53.268Z,87.42
2022-12-20T00:36:01.434Z,87.81
2022-12-20T00:38:05.772Z,87.53
2022-12-20T00:40:11.461Z,88.03
2022-12-20T00:42:15.914Z,87.78
2022-12-20T00:44:22.720Z,88.18
2022-12-20T00:46:28.053Z,88.16
2022-12-20T00:48:34.907Z,87.88
2022-12-20T00:50:39.328Z,87.99
2022-12-20T00:52:43.662Z,88.43
2022-12-20T00:54:48.268Z,87.81
2022-12-20T00:56:52.445Z,87.84
2022-12-20T00:58:56.959Z,88.12
2022-12-20T01:01:01.385Z,87.89
2022-12-20T01:03:06.705Z,88.14
2022-12-20T01:05:12.645Z,88.08
2022-12-20T01:07:17.335Z,87.93
2022-12-20T01:09:22.939Z,88.26
2022-12-20T01:11:29.806Z,88.19
2022-12-20T01:13:37.178Z,87.90
2022-12-20T01:15:42.431Z,88.31
2022-12-20T01:17:46.958Z,87.97
2022-12-20T01:19:51.253Z,88.38
2022-12-20T01:21:57.596Z,88.19
2022-12-20T01:24:01.800Z,88.57
2022-12-20T01:26:10.523Z,88.78
2022-12-20T01:28:15.964Z,88.61
2022-12-20T01:30:20.960Z,88.50
2022-12-20T01:32:27.570Z,88.47
2022-12-20T01:34:31.861Z,88.74
2022-12-20T01:36:38.743Z,88.39
2022-12-20T01:38:45.552Z,88.33
2022-12-20T01:40:49.651Z,88.21
2022-12-20T01:42:53.700Z,88.82
2022-12-20T01:45:02.564Z,88.49
2022-12-20T01:47:07.727Z,89.07
2022-12-20T01:49:15.975Z,89.27
2022-12-20T01:51:21.951Z,88.49
2022-12-20T01:53:27.641Z,89.06
2022-12-20T01:55:34.919Z,88.94
2022-12-20T01:57:47.699Z,89.28
2022-12-20T01:59:54.396Z,89.34
2022-12-20T02:02:01.069Z,89.36
2022-12-20T02:04:05.794Z,89.88
2022-12-20T02:06:18.754Z,89.71
2022-12-20T02:08:23.318Z,89.67
2022-12-20T02:10:40.763Z,90.02
2022-12-20T02:12:46.567Z,89.97
2022-12-20T02:15:04.813Z,89.69
2022-12-20T02:17:25.719Z,89.93
2022-12-20T02:20:12.256Z,90.50
2022-12-20T02:22:28.043Z,89.84
2022-12-20T02:24:56.778Z,90.30
2022-12-20T02:27:32.241Z,90.28
2022-12-20T02:29:40.449Z,90.27
2022-12-20T02:31:52.284Z,90.37
2022-12-20T02:34:00.208Z,90.12
2022-12-20T02:36:05.863Z,90.30
2022-12-20T02:38:29.626Z,90.41
2022-12-20T02:40:39.196Z,89.91
2022-12-20T02:42:44.110Z,89.91
2022-12-20T02:45:09.470Z,89.90
2022-12-20T02:47:20.305Z,90.42
2022-12-20T02:49:30.953Z,90.13
2022-12-20T02:51:36.449Z,90.08
2022-12-20T02:53:43.003Z,90.17
2022-12-20T02:55:58.968Z,90.34
2022-12-20T02:58:11.864Z,90.40
2022-12-20T03:00:18.666Z,90.41
2022-12-20T03:02:25.895Z,90.73
2022-12-20T03:04:33.226Z,90.67
2022-12-20T03:06:37.208Z,90.79
2022-12-20T03:08:42.214Z,90.98
2022-12-20T03:10:46.796Z,90.56
2022-12-20T03:12:50.997Z,90.95
2022-12-20T03:14:55.531Z,90.65
2022-12-20T03:16:59.723Z,90.66
2022-12-20T03:19:04.940Z,90.81
2022-12-20T03:21:08.762Z,90.48
2022-12-20T03:23:12.461Z,90.74
2022-12-20T03:25:16.580Z,91.06
2022-12-20T03:27:20.168Z,90.83
2022-12-20T03:29:24.121Z,91.05
2022-12-20T03:31:27.703Z,91.11
2022-12-20T03:33:32.063Z,90.99
2022-12-20T03:35:39.530Z,91.34
2022-12-20T03:37:43.796Z,91.40
2022-12-20T03:39:48.087Z,91.49
2022-12-20T03:41:51.735Z,91.23
2022-12-20T03:43:55.618Z,91.23
2022-12-20T03:46:00.125Z,91.15
2022-12-20T03:48:05.158Z,91.62
2022-12-20T03:50:10.811Z,91.80
2022-12-20T03:52:16.741Z,92.23
2022-12-20T03:54:20.383Z,91.71
2022-12-20T03:56:40.145Z,92.48
2022-12-20T03:58:43.650Z,92.14
2022-12-20T04:00:47.708Z,92.12
2022-12-20T04:03:17.879Z,92.71
2022-12-20T04:05:22.317Z,92.44
2022-12-20T04:07:27.919Z,92.56
2022-12-20T04:09:31.451Z,92.68
2022-12-20T04:11:41.686Z,92.59
2022-12-20T04:13:51.607Z,93.05
2022-12-20T04:16:00.315Z,93.06
2022-12-20T04:18:07.703Z,93.45
2022-12-20T04:20:20.064Z,92.95
2022-12-20T04:22:32.328Z,93.59
2022-12-20T04:24:41.801Z,93.26
2022-12-20T04:26:57.048Z,93.18
2022-12-20T04:29:01.355Z,93.22
2022-12-20T04:31:05.920Z,92.95
2022-12-20T04:33:13.837Z,93.60
2022-12-20T04:35:19.050Z,93.38
2022-12-20T04:37:23.881Z,93.97
2022-12-20T04:39:32.509Z,93.80
2022-12-20T04:41:50.984Z,93.36
2022-12-20T04:43:58.089Z,93.96
2022-12-20T04:46:09.892Z,93.64
2022-12-20T04:48:54.682Z,93.93
2022-12-20T04:50:39.101Z,93.70
2022-12-20T04:53:01.095Z,93.89
2022-12-20T04:55:09.159Z,93.34
2022-12-20T04:57:13.796Z,92.67
2022-12-20T04:59:18.270Z,92.91
2022-12-20T05:01:25.641Z,92.60
2022-12-20T05:03:31.004Z,92.45
2022-12-20T05:05:35.372Z,92.67
2022-12-20T05:07:39.879Z,92.16
2022-12-20T05:09:45.659Z,91.83
2022-12-20T05:11:51.840Z,91.86
2022-12-20T05:13:56.047Z,92.29
2022-12-20T05:16:01.295Z,92.10
2022-12-20T05:18:09.530Z,92.48
2022-12-20T05:20:26.786Z,92.25
2022-12-20T05:22:48.960Z,92.34
2022-12-20T05:25:10.635Z,92.04
2022-12-20T05:27:18.211Z,92.24
2022-12-20T05:29:22.694Z,92.41
2022-12-20T05:31:27.461Z,92.50
2022-12-20T05:33:34.327Z,92.79
2022-12-20T05:35:40.166Z,92.64
2022-12-20T05:37:48.850Z,92.90
2022-12-20T05:39:56.334Z,92.87
2022-12-20T05:42:01.757Z,92.80
2022-12-20T05:44:09.057Z,93.11
2022-12-20T05:46:16.142Z,93.39
2022-12-20T05:48:38.186Z,93.21
2022-12-20T05:50:44.489Z,93.16
2022-12-20T05:53:11.572Z,93.50
2022-12-20T05:55:23.110Z,93.39
2022-12-20T05:57:27.916Z,93.41
2022-12-20T05:59:35.260Z,93.19
2022-12-20T06:01:42.479Z,93.59
2022-12-20T06:03:47.780Z,93.08
2022-12-20T06:05:55.084Z,93.32
2022-12-20T06:08:04.819Z,92.91
2022-12-20T06:10:12.027Z,93.25
2022-12-20T06:12:30.062Z,92.96
2022-12-20T06:14:35.828Z,93.16
2022-12-20T06:16:40.680Z,92.94
2022-12-20T06:18:47.323Z,92.56
2022-12-20T06:20:52.975Z,92.87
2022-12-20T06:23:00.726Z,92.71
2022-12-20T06:25:12.763Z,92.71
2022-12-20T06:27:18.847Z,92.34
2022-12-20T06:29:29.349Z,91.90
2022-12-20T06:31:42.811Z,91.84
2022-12-20T06:33:47.134Z,91.82
2022-12-20T06:35:54.185Z,91.96
2022-12-20T06:38:00.030Z,92.05
2022-12-20T06:40:09.379Z,91.77
2022-12-20T06:42:14.266Z,91.86
2022-12-20T06:44:21.302Z,92.04
2022-12-20T06:46:27.865Z,91.84
2022-12-20T06:48:34.746Z,91.80
2022-12-20T06:50:39.615Z,91.76
2022-12-20T06:52:44.487Z,92.41
2022-12-20T06:54:48.757Z,92.22
2022-12-20T06:56:52.831Z,92.53
2022-12-20T06:58:57.256Z,92.84
2022-12-20T07:01:01.418Z,93.20
2022-12-20T07:03:06.510Z,93.24
2022-12-20T07:05:12.491Z,93.47
2022-12-20T07:07:17.513Z,93.36
2022-12-20T07:09:22.167Z,93.39
2022-12-20T07:11:27.312Z,93.29
2022-12-20T07:13:32.258Z,93.52
2022-12-20T07:15:37.390Z,93.26
2022-12-20T07:17:42.104Z,93.23
2022-12-20T07:19:50.763Z,93.24
2022-12-20T07:21:57.085Z,93.19
2022-12-20T07:24:02.004Z,93.17
2022-12-20T07:26:06.725Z,93.00
2022-12-20T07:28:12.732Z,93.18
2022-12-20T07:30:17.237Z,93.26
2022-12-20T07:32:21.401Z,93.17
2022-12-20T07:34:25.759Z,93.06
2022-12-20T07:36:29.914Z,92.50
2022-12-20T07:38:36.584Z,92.19
2022-12-20T07:40:43.649Z,92.18
2022-12-20T07:42:49.042Z,92.07
2022-12-20T07:44:53.128Z,91.66
2022-12-20T07:46:57.351Z,91.73
2022-12-20T07:49:01.761Z,91.51
2022-12-20T07:51:10.387Z,91.66
2022-12-20T07:53:14.769Z,91.42
2022-12-20T07:55:21.138Z,91.16
2022-12-20T07:57:31.551Z,90.92
2022-12-20T07:59:40.529Z,90.26
2022-12-20T08:01:47.188Z,89.90
2022-12-20T08:03:58.522Z,90.05
2022-12-20T08:06:07.915Z,89.84
2022-12-20T08:08:12.833Z,89.81
2022-12-20T08:10:20.340Z,89.74
2022-12-20T08:12:30.790Z,89.47
2022-12-20T08:14:35.307Z,89.41
2022-12-20T08:16:40.049Z,88.27
2022-12-20T08:18:45.057Z,88.42
2022-12-20T08:20:50.010Z,88.55
2022-12-20T08:22:54.447Z,88.69
2022-12-20T08:24:58.633Z,88.64
2022-12-20T08:27:03.122Z,88.49
2022-12-20T08:29:09.503Z,88.27
2022-12-20T08:31:14.487Z,88.57
2022-12-20T08:33:19.962Z,88.82
2022-12-20T08:35:25.414Z,88.75
2022-12-20T08:37:30.115Z,89.00
2022-12-20T08:39:35.526Z,88.93
2022-12-20T08:41:40.705Z,88.18
2022-12-20T08:43:45.951Z,87.69
2022-12-20T08:45:57.059Z,87.00
2022-12-20T08:48:01.193Z,86.54
2022-12-20T08:50:05.996Z,86.27
2022-12-20T08:52:09.767Z,86.24
2022-12-20T08:54:13.768Z,86.05
2022-12-20T08:56:20.248Z,85.53
2022-12-20T08:58:24.082Z,85.33
2022-12-20T09:00:28.871Z,84.45
2022-12-20T09:02:34.497Z,84.71
2022-12-20T09:04:38.528Z,83.89
2022-12-20T09:06:43.526Z,83.84
2022-12-20T09:08:47.712Z,83.44
2022-12-20T09:10:51.757Z,83.35
2022-12-20T09:12:55.333Z,83.04
2022-12-20T09:14:59.085Z,83.27
2022-12-20T09:17:03.701Z,83.04
2022-12-20T09:19:08.916Z,83.11
2022-12-20T09:21:13.757Z,82.80
2022-12-20T09:23:17.665Z,81.97
2022-12-20T09:25:21.421Z,81.51
2022-12-20T09:27:25.567Z,81.39
2022-12-20T09:29:35.245Z,81.08
2022-12-20T09:31:39.443Z,81.08
2022-12-20T09:33:44.250Z,80.55
2022-12-20T09:35:49.727Z,80.44
2022-12-20T09:37:53.606Z,80.08
2022-12-20T09:39:57.420Z,80.15
2022-12-20T09:42:01.577Z,80.57
2022-12-20T09:44:13.879Z,80.43
2022-12-20T09:46:18.306Z,80.38
2022-12-20T09:48:25.225Z,80.23
2022-12-20T09:50:42.172Z,80.89
2022-12-20T09:53:03.574Z,80.93
2022-12-20T09:55:18.555Z,81.31
2022-12-20T09:57:32.391Z,80.60
2022-12-20T09:59:44.462Z,80.45
2022-12-20T10:01:52.002Z,80.27
2022-12-20T10:03:58.236Z,80.08
2022-12-20T10:06:11.811Z,80.31
2022-12-20T10:08:28.248Z,79.86
2022-12-20T10:10:54.561Z,79.64
2022-12-20T10:13:07.884Z,79.30
2022-12-20T10:15:19.878Z,79.60
2022-12-20T10:17:37.442Z,79.54
2022-12-20T10:20:00.782Z,78.85
2022-12-20T10:22:12.681Z,78.56
2022-12-20T10:24:20.579Z,78.36
2022-12-20T10:26:24.895Z,78.39
2022-12-20T10:28:30.655Z,78.48
2022-12-20T10:30:36.532Z,78.22
2022-12-20T10:32:40.362Z,78.42
2022-12-20T10:34:53.272Z,78.19
2022-12-20T10:37:14.827Z,78.56
2022-12-20T10:39:40.860Z,77.64
2022-12-20T10:41:52.499Z,77.37
2022-12-20T10:44:00.489Z,76.92
2022-12-20T10:46:08.044Z,76.58
2022-12-20T10:48:29.931Z,76.67
2022-12-20T10:50:34.050Z,76.93
2022-12-20T10:52:38.002Z,76.24
2022-12-20T10:54:45.447Z,76.21
2022-12-20T10:56:56.960Z,76.01
2022-12-20T10:59:03.038Z,76.20
2022-12-20T11:01:17.631Z,76.10
2022-12-20T11:03:24.972Z,76.05
2022-12-20T11:05:29.446Z,75.15
2022-12-20T11:07:35.939Z,75.08
2022-12-20T11:09:39.505Z,74.05
2022-12-20T11:11:59.608Z,73.99
2022-12-20T11:14:16.677Z,73.88
2022-12-20T11:16:31.528Z,73.35
2022-12-20T11:18:45.842Z,72.77
2022-12-20T11:20:58.828Z,71.46
2022-12-20T11:23:17.420Z,71.84
2022-12-20T11:25:50.596Z,70.96
2022-12-20T11:28:11.155Z,71.45
2022-12-20T11:30:21.655Z,71.82
2022-12-20T11:32:40.571Z,71.97
2022-12-20T11:34:54.904Z,72.60
2022-12-20T11:37:20.022Z,71.91
2022-12-20T11:39:32.470Z,72.13
2022-12-20T11:41:45.180Z,72.46
2022-12-20T11:46:41.986Z,71.73
2022-12-20T11:49:03.357Z,71.79
2022-12-20T11:51:22.872Z,72.30
2022-12-20T11:53:36.834Z,72.13
2022-12-20T11:55:44.808Z,71.93
2022-12-20T12:00:23.568Z,72.08
2022-12-20T12:02:36.245Z,72.52
2022-12-20T12:04:46.687Z,72.40
2022-12-20T12:06:55.630Z,72.15
2022-12-20T12:09:13.936Z,72.16
2022-12-20T12:13:46.534Z,72.10
2022-12-20T12:15:58.825Z,72.70
2022-12-20T12:18:08.645Z,72.11
2022-12-20T12:20:27.151Z,73.00
2022-12-20T12:22:36.361Z,72.79
2022-12-20T12:24:45.326Z,72.90
2022-12-20T12:26:49.359Z,72.83
2022-12-20T12:28:56.360Z,72.95
2022-12-20T12:31:06.161Z,72.88
2022-12-20T12:33:23.937Z,72.27
2022-12-20T12:35:52.834Z,71.85
2022-12-20T12:38:06.602Z,72.17
2022-12-20T12:40:39.490Z,72.48
2022-12-20T12:43:13.655Z,73.27
2022-12-20T12:45:22.403Z,73.38
2022-12-20T12:47:38.816Z,73.38
2022-12-20T12:49:43.034Z,73.62
2022-12-20T12:51:55.860Z,73.33
2022-12-20T12:54:18.994Z,71.47
2022-12-20T12:56:44.454Z,71.90
2022-12-20T12:59:12.268Z,71.17
2022-12-20T13:01:50.566Z,70.15
2022-12-20T13:04:24.975Z,69.84
2022-12-20T13:07:05.358Z,69.58
2022-12-20T13:09:21.037Z,69.19
2022-12-20T13:11:33.046Z,69.25
2022-12-20T13:13:36.693Z,68.76
2022-12-20T13:16:07.693Z,68.78
2022-12-20T13:18:29.700Z,68.89
2022-12-20T13:20:37.953Z,68.42
2022-12-20T13:22:42.191Z,68.44
2022-12-20T13:24:58.451Z,68.40
2022-12-20T13:27:04.192Z,67.66
2022-12-20T13:29:26.412Z,67.46
2022-12-20T13:31:37.811Z,68.01
2022-12-20T13:33:44.379Z,68.40
2022-12-20T13:36:35.697Z,68.74
2022-12-20T13:38:51.152Z,68.40
2022-12-20T13:40:59.940Z,68.80
2022-12-20T13:43:09.772Z,69.00
2022-12-20T13:45:16.263Z,69.14
2022-12-20T13:47:40.998Z,68.66
2022-12-20T13:49:45.901Z,68.66
2022-12-20T13:51:51.134Z,68.30
2022-12-20T13:53:59.171Z,68.10
2022-12-20T13:56:33.579Z,68.25
2022-12-20T13:58:37.250Z,68.39
2022-12-20T14:00:41.493Z,68.22
2022-12-20T14:02:46.790Z,68.38
2022-12-20T14:04:59.925Z,68.46
2022-12-20T14:07:05.328Z,68.27
2022-12-20T14:09:29.944Z,68.32
2022-12-20T14:11:33.859Z,68.03
2022-12-20T14:13:37.603Z,68.32
2022-12-20T14:15:41.343Z,68.06
2022-12-20T14:17:45.107Z,68.15
2022-12-20T14:19:48.897Z,67.93
2022-12-20T14:21:52.823Z,67.21
2022-12-20T14:24:00.896Z,67.57
2022-12-20T14:26:05.124Z,67.18
2022-12-20T14:28:26.530Z,66.73
2022-12-20T14:30:36.845Z,66.59
2022-12-20T14:32:40.586Z,66.13
2022-12-20T14:34:45.089Z,66.08
2022-12-20T14:36:52.042Z,66.22
2022-12-20T14:38:57.733Z,65.94
2022-12-20T14:41:01.473Z,65.69
2022-12-20T14:43:16.823Z,66.06
2022-12-20T14:45:25.866Z,66.43
2022-12-20T14:47:30.275Z,66.75
2022-12-20T14:49:35.660Z,66.41
2022-12-20T14:51:40.781Z,67.12
2022-12-20T14:53:47.767Z,67.35
2022-12-20T14:55:53.269Z,67.10
2022-12-20T14:57:58.348Z,67.56
2022-12-20T15:00:07.488Z,67.79
2022-12-20T15:02:37.770Z,68.12
2022-12-20T15:04:41.696Z,68.19
2022-12-20T15:06:48.556Z,68.43
2022-12-20T15:08:52.153Z,68.86
2022-12-20T15:11:03.884Z,68.82
2022-12-20T15:13:13.459Z,69.11
2022-12-20T15:15:29.184Z,69.04
2022-12-20T15:17:33.554Z,69.29
2022-12-20T15:19:41.973Z,69.41
2022-12-20T15:21:47.526Z,70.03
2022-12-20T15:23:53.813Z,70.05
2022-12-20T15:26:01.304Z,69.99
2022-12-20T15:28:14.720Z,70.37
2022-12-20T15:30:18.846Z,70.54
2022-12-20T15:32:30.023Z,70.48
2022-12-20T15:34:37.024Z,71.10
2022-12-20T15:36:41.226Z,71.26
2022-12-20T15:39:11.440Z,71.43
2022-12-20T15:41:18.081Z,71.76
2022-12-20T15:43:23.574Z,71.68
2022-12-20T15:45:28.766Z,71.95
2022-12-20T15:47:32.803Z,72.07
2022-12-20T15:49:36.722Z,72.06
2022-12-20T15:51:43.365Z,72.52
2022-12-20T15:53:47.079Z,72.48
2022-12-20T15:55:54.890Z,72.48
2022-12-20T15:58:00.039Z,72.68
2022-12-20T16:00:05.005Z,72.72
2022-12-20T16:02:23.793Z,72.83
2022-12-20T16:04:28.796Z,72.83
2022-12-20T16:06:33.440Z,73.38
2022-12-20T16:08:37.503Z,73.00
2022-12-20T16:10:41.565Z,73.00
2022-12-20T16:12:45.696Z,73.07
2022-12-20T16:14:51.959Z,73.16
2022-12-20T16:16:56.251Z,72.75
2022-12-20T16:19:00.176Z,72.94
2022-12-20T16:21:04.610Z,72.84
2022-12-20T16:23:17.700Z,72.00
2022-12-20T16:25:30.531Z,72.39
2022-12-20T16:27:34.280Z,72.19
2022-12-20T16:29:38.061Z,72.53
2022-12-20T16:31:44.644Z,72.39
2022-12-20T16:33:48.522Z,72.35
2022-12-20T16:35:52.572Z,72.30
2022-12-20T16:37:57.364Z,72.34
2022-12-20T16:40:00.939Z,71.80
2022-12-20T16:42:04.489Z,71.79
2022-12-20T16:44:08.649Z,71.60
2022-12-20T16:46:14.432Z,71.42
2022-12-20T16:48:19.762Z,71.56
2022-12-20T16:50:25.799Z,71.80
2022-12-20T16:52:29.902Z,71.74
2022-12-20T16:54:33.823Z,71.79
2022-12-20T16:56:38.127Z,71.52
2022-12-20T16:59:17.227Z,71.28
2022-12-20T17:01:05.299Z,71.32
2022-12-20T17:03:10.101Z,71.29
2022-12-20T17:05:30.874Z,71.27
2022-12-20T17:07:41.042Z,71.00
2022-12-20T17:09:45.097Z,70.67
2022-12-20T17:11:50.430Z,70.58
2022-12-20T17:13:57.880Z,70.40
2022-12-20T17:16:01.607Z,70.40
2022-12-20T17:18:05.691Z,70.60
2022-12-20T17:20:10.567Z,70.61
2022-12-20T17:22:25.125Z,70.95
2022-12-20T17:24:29.274Z,71.16
2022-12-20T17:26:33.078Z,71.13
2022-12-20T17:28:37.800Z,71.28
2022-12-20T17:30:41.769Z,71.16
2022-12-20T17:32:46.352Z,71.37
2022-12-20T17:34:50.429Z,71.52
2022-12-20T17:36:55.700Z,71.59
2022-12-20T17:39:01.104Z,71.59
2022-12-20T17:41:05.445Z,71.21
2022-12-20T17:43:14.344Z,71.04
2022-12-20T17:45:31.690Z,70.51
2022-12-20T17:47:35.980Z,70.69
2022-12-20T17:49:40.348Z,70.50
2022-12-20T17:51:45.140Z,70.56
2022-12-20T17:53:51.297Z,70.51
2022-12-20T17:55:57.650Z,70.83
2022-12-20T17:58:02.158Z,70.77
2022-12-20T18:00:07.376Z,70.95
2022-12-20T18:02:24.597Z,71.28
2022-12-20T18:04:28.881Z,71.32
2022-12-20T18:06:34.321Z,71.30
2022-12-20T18:08:39.296Z,71.59
2022-12-20T18:10:43.439Z,71.83
2022-12-20T18:12:48.979Z,72.10
2022-12-20T18:14:53.282Z,72.17
2022-12-20T18:16:58.998Z,72.35
2022-12-20T18:19:04.695Z,72.87
2022-12-20T18:21:10.744Z,72.72
2022-12-20T18:23:15.167Z,72.99
2022-12-20T18:25:19.192Z,73.43
2022-12-20T18:27:30.173Z,73.52
2022-12-20T18:29:36.378Z,73.30
2022-12-20T18:31:41.753Z,73.75
2022-12-20T18:33:45.871Z,73.73
2022-12-20T18:35:50.517Z,73.78
2022-12-20T18:37:54.607Z,73.80
2022-12-20T18:39:58.385Z,73.71
2022-12-20T18:42:02.598Z,73.68
2022-12-20T18:44:08.368Z,73.62
2022-12-20T18:46:15.495Z,73.83
2022-12-20T18:48:19.397Z,73.84
2022-12-20T18:50:23.126Z,73.93
2022-12-20T18:52:27.515Z,73.62
2022-12-20T18:54:32.089Z,73.82
2022-12-20T18:56:39.193Z,73.70
2022-12-20T18:58:44.246Z,73.75
2022-12-20T19:00:49.132Z,73.22
2022-12-20T19:02:59.183Z,72.87
2022-12-20T19:05:03.905Z,72.60
2022-12-20T19:07:07.832Z,71.49
2022-12-20T19:09:14.942Z,71.38
2022-12-20T19:11:21.496Z,70.90
2022-12-20T19:13:25.587Z,70.69
2022-12-20T19:15:29.641Z,70.69
2022-12-20T19:17:34.256Z,70.85
2022-12-20T19:19:40.443Z,70.33
2022-12-20T19:21:45.292Z,70.25
2022-12-20T19:23:51.508Z,70.34
2022-12-20T19:25:58.565Z,70.70
2022-12-20T19:28:07.218Z,70.37
2022-12-20T19:30:11.691Z,70.44
2022-12-20T19:32:15.702Z,70.67
2022-12-20T19:34:19.947Z,70.87
2022-12-20T19:36:27.697Z,70.99
2022-12-20T19:38:31.349Z,71.09
2022-12-20T19:40:35.876Z,71.10
2022-12-20T19:42:39.920Z,71.68
2022-12-20T19:44:43.841Z,71.27
2022-12-20T19:46:47.966Z,71.68
2022-12-20T19:48:52.327Z,71.61
2022-12-20T19:51:03.272Z,71.82
2022-12-20T19:53:13.973Z,71.98
2022-12-20T19:55:19.605Z,71.71
2022-12-20T19:57:23.151Z,71.64
2022-12-20T19:59:27.439Z,72.00
2022-12-20T20:01:31.464Z,71.79
2022-12-20T20:03:35.946Z,71.54
2022-12-20T20:05:41.792Z,71.02
2022-12-20T20:07:45.502Z,71.04
2022-12-20T20:09:50.532Z,70.76
2022-12-20T20:11:54.631Z,70.52
2022-12-20T20:13:58.304Z,70.78
2022-12-20T20:16:04.490Z,70.16
2022-12-20T20:18:08.649Z,69.81
2022-12-20T20:20:13.038Z,69.65
2022-12-20T20:22:22.637Z,69.61
2022-12-20T20:24:27.036Z,69.19
2022-12-20T20:26:32.989Z,68.78
2022-12-20T20:28:43.761Z,68.91
2022-12-20T20:30:51.306Z,69.09
2022-12-20T20:32:55.061Z,69.32
2022-12-20T20:34:59.320Z,69.48
2022-12-20T20:37:03.538Z,69.57
2022-12-20T20:39:07.866Z,69.99
2022-12-20T20:41:12.285Z,70.21
2022-12-20T20:43:17.715Z,70.63
2022-12-20T20:45:21.655Z,70.84
2022-12-20T20:47:25.822Z,71.38
2022-12-20T20:49:29.911Z,71.10
2022-12-20T20:51:34.700Z,71.37
2022-12-20T20:53:39.821Z,71.31
2022-12-20T20:55:44.268Z,71.79
2022-12-20T20:57:48.516Z,71.50
2022-12-20T20:59:54.050Z,71.83
2022-12-20T21:01:58.226Z,71.60
2022-12-20T21:04:02.710Z,71.44
2022-12-20T21:08:33.691Z,71.31
2022-12-20T21:10:37.827Z,70.89
2022-12-20T21:12:41.524Z,70.85
2022-12-20T21:15:20.648Z,70.79
2022-12-20T21:17:12.174Z,71.00
2022-12-20T21:19:16.504Z,71.23
2022-12-20T21:21:20.674Z,71.40
2022-12-20T21:23:24.638Z,71.60
2022-12-20T21:25:28.375Z,71.74
2022-12-20T21:27:33.082Z,71.68
2022-12-20T21:29:36.727Z,71.60
2022-12-20T21:31:40.829Z,71.36
2022-12-20T21:33:47.245Z,71.42
2022-12-20T21:35:54.065Z,71.36
2022-12-20T21:37:58.522Z,71.29
2022-12-20T21:40:02.461Z,70.88
2022-12-20T21:42:06.226Z,71.27
2022-12-20T21:44:13.511Z,71.43
2022-12-20T21:46:17.315Z,71.55
2022-12-20T21:48:21.460Z,71.95
2022-12-20T21:50:26.333Z,72.10
2022-12-20T21:52:30.363Z,72.31
2022-12-20T21:54:35.018Z,72.28
2022-12-20T21:56:40.852Z,72.67
2022-12-20T21:58:45.993Z,72.90
2022-12-20T22:00:54.492Z,73.26
2022-12-20T22:02:59.278Z,73.15
2022-12-20T22:05:03.697Z,73.33
2022-12-20T22:07:09.412Z,73.44
2022-12-20T22:09:13.314Z,73.31
2022-12-20T22:11:19.949Z,73.19
2022-12-20T22:13:25.432Z,73.31
2022-12-20T22:15:33.776Z,73.21
2022-12-20T22:17:38.196Z,73.46
2022-12-20T22:19:46.542Z,73.58
2022-12-20T22:21:58.002Z,73.85
2022-12-20T22:24:04.978Z,74.22
2022-12-20T22:26:12.101Z,74.17
2022-12-20T22:28:17.249Z,74.43
2022-12-20T22:30:29.948Z,74.13
2022-12-20T22:32:37.995Z,74.38
2022-12-20T22:34:53.360Z,73.95
2022-12-20T22:37:01.045Z,73.96
2022-12-20T22:39:17.415Z,73.94
2022-12-20T22:41:31.099Z,73.47
2022-12-20T22:43:50.662Z,73.71
2022-12-20T22:46:12.184Z,73.82
2022-12-20T22:48:24.005Z,74.12
2022-12-20T22:50:36.116Z,74.62
2022-12-20T22:52:43.537Z,75.39
2022-12-20T22:54:54.206Z,75.75
2022-12-20T22:57:06.855Z,75.86
2022-12-20T22:59:11.969Z,76.61
2022-12-20T23:01:21.081Z,76.96
2022-12-20T23:03:28.613Z,77.06
2022-12-20T23:05:34.507Z,77.26
2022-12-20T23:07:41.753Z,77.37
2022-12-20T23:09:49.974Z,76.72
2022-12-20T23:12:15.585Z,76.77
2022-12-20T23:14:40.804Z,77.17
2022-12-20T23:16:46.470Z,77.91
2022-12-20T23:18:52.559Z,79.10
2022-12-20T23:21:15.287Z,79.94
2022-12-20T23:23:23.056Z,81.30
2022-12-20T23:25:29.207Z,82.55
2022-12-20T23:27:36.928Z,84.41
2022-12-20T23:29:42.352Z,85.36
2022-12-20T23:31:48.663Z,85.84
2022-12-20T23:33:55.237Z,86.45
2022-12-20T23:35:59.993Z,88.33
2022-12-20T23:38:04.550Z,88.93
2022-12-20T23:40:13.199Z,89.48
2022-12-20T23:42:18.105Z,89.43
2022-12-20T23:44:25.399Z,90.33
2022-12-20T23:46:31.654Z,90.89
2022-12-20T23:48:38.066Z,91.96
2022-12-20T23:50:43.896Z,92.87
2022-12-20T23:52:49.784Z,93.00
2022-12-20T23:54:54.039Z,93.66
2022-12-20T23:56:57.906Z,93.90
2022-12-20T23:59:03.135Z,94.27
